sensor_id;sensor_type;location;lat;lon;timestamp;pressure;altitude;pressure_sealevel;temperature;humidity
23659;BME280;12006;42.666;23.326;2023-07-29T00:00:16;-23468.88;;;19.30;100.00
23659;BME280;12006;42.666;23.326;2023-07-29T00:02:42;-23791.13;;;19.28;100.00
23659;BME280;12006;42.666;23.326;2023-07-29T00:05:08;-23789.97;;;19.24;100.00
23659;BME280;12006;42.666;23.326;2023-07-29T00:07:33;-23791.47;;;19.29;100.00
23659;BME280;12006;42.666;23.326;2023-07-29T00:09:58;-23790.78;;;19.27;100.00
23659;BME280;12006;42.666;23.326;2023-07-29T00:12:24;-23466.75;;;19.24;100.00
23659;BME280;12006;42.666;23.326;2023-07-29T00:14:49;-23784.69;;;19.08;100.00
23659;BME280;12006;42.666;23.326;2023-07-29T00:17:15;-23783.00;;;19.03;100.00
23659;BME280;12006;42.666;23.326;2023-07-29T00:19:40;-24101.41;;;18.90;100.00
23659;BME280;12006;42.666;23.326;2023-07-29T00:22:05;-24100.06;;;18.86;100.00
23659;BME280;12006;42.666;23.326;2023-07-29T00:24:33;-24101.06;;;18.89;100.00
23659;BME280;12006;42.666;23.326;2023-07-29T00:26:59;-24099.03;;;18.83;100.00
23659;BME280;12006;42.666;23.326;2023-07-29T00:29:24;-24424.91;;;18.92;100.00
23659;BME280;12006;42.666;23.326;2023-07-29T00:31:49;-24104.09;;;18.98;100.00
23659;BME280;12006;42.666;23.326;2023-07-29T00:34:15;-24101.72;;;18.91;100.00
23659;BME280;12006;42.666;23.326;2023-07-29T00:36:44;-24102.41;;;18.93;100.00
23659;BME280;12006;42.666;23.326;2023-07-29T00:39:10;-24099.03;;;18.83;100.00
23659;BME280;12006;42.666;23.326;2023-07-29T00:41:35;-24415.69;;;18.65;100.00
23659;BME280;12006;42.666;23.326;2023-07-29T00:44:01;-24418.75;;;18.74;100.00
23659;BME280;12006;42.666;23.326;2023-07-29T00:46:27;-24418.59;;;18.74;100.00
23659;BME280;12006;42.666;23.326;2023-07-29T00:48:53;-23769.94;;;18.64;100.00
23659;BME280;12006;42.666;23.326;2023-07-29T00:51:19;-23767.28;;;18.56;100.00
23659;BME280;12006;42.666;23.326;2023-07-29T00:53:44;-24090.63;;;18.58;100.00
23659;BME280;12006;42.666;23.326;2023-07-29T00:56:10;-24089.63;;;18.55;100.00
23659;BME280;12006;42.666;23.326;2023-07-29T00:58:35;-24089.97;;;18.56;100.00
23659;BME280;12006;42.666;23.326;2023-07-29T01:01:00;-24085.25;;;18.42;100.00
23659;BME280;12006;42.666;23.326;2023-07-29T01:03:26;-24088.44;;;18.52;100.00
23659;BME280;12006;42.666;23.326;2023-07-29T01:11:41;-24086.44;;;18.46;100.00
23659;BME280;12006;42.666;23.326;2023-07-29T01:16:47;-24084.41;;;18.40;100.00
23659;BME280;12006;42.666;23.326;2023-07-29T01:19:41;-24408.34;;;18.44;100.00
23659;BME280;12006;42.666;23.326;2023-07-29T01:22:08;-24405.09;;;18.34;100.00
23659;BME280;12006;42.666;23.326;2023-07-29T01:24:34;-24403.88;;;18.31;100.00
23659;BME280;12006;42.666;23.326;2023-07-29T01:26:59;-24404.06;;;18.31;100.00
23659;BME280;12006;42.666;23.326;2023-07-29T01:29:27;-24401.00;;;18.23;100.00
23659;BME280;12006;42.666;23.326;2023-07-29T01:31:55;-24403.38;;;18.29;100.00
23659;BME280;12006;42.666;23.326;2023-07-29T01:35:03;-24401.34;;;18.24;100.00
23659;BME280;12006;42.666;23.326;2023-07-29T01:37:33;-24402.69;;;18.27;100.00
23659;BME280;12006;42.666;23.326;2023-07-29T01:40:00;-24399.97;;;18.20;100.00
23659;BME280;12006;42.666;23.326;2023-07-29T01:42:26;-24397.91;;;18.14;100.00
23659;BME280;12006;42.666;23.326;2023-07-29T01:44:52;-24396.53;;;18.10;100.00
23659;BME280;12006;42.666;23.326;2023-07-29T01:47:18;-24398.09;;;18.09;100.00
23659;BME280;12006;42.666;23.326;2023-07-29T01:49:43;-24396.03;;;18.03;100.00
23659;BME280;12006;42.666;23.326;2023-07-29T01:52:09;-24399.13;;;18.12;100.00
23659;BME280;12006;42.666;23.326;2023-07-29T01:54:34;-24397.41;;;18.07;100.00
23659;BME280;12006;42.666;23.326;2023-07-29T01:56:59;-24397.56;;;18.07;100.00
23659;BME280;12006;42.666;23.326;2023-07-29T01:59:25;-24399.47;;;18.13;100.00
23659;BME280;12006;42.666;23.326;2023-07-29T02:01:50;-24395.88;;;18.02;100.00
23659;BME280;12006;42.666;23.326;2023-07-29T02:04:15;-24396.22;;;18.03;100.00
23659;BME280;12006;42.666;23.326;2023-07-29T02:06:41;-24394.50;;;17.98;100.00
23659;BME280;12006;42.666;23.326;2023-07-29T02:09:06;-24393.81;;;17.96;100.00
23659;BME280;12006;42.666;23.326;2023-07-29T02:11:32;-24394.00;;;17.97;100.00
23659;BME280;12006;42.666;23.326;2023-07-29T02:13:57;-24391.25;;;17.89;100.00
23659;BME280;12006;42.666;23.326;2023-07-29T02:16:23;-24390.91;;;17.88;100.00
23659;BME280;12006;42.666;23.326;2023-07-29T02:18:49;-24389.88;;;17.85;100.00
23659;BME280;12006;42.666;23.326;2023-07-29T02:21:17;-24387.84;;;17.79;100.00
23659;BME280;12006;42.666;23.326;2023-07-29T02:23:42;-24384.94;;;17.70;100.00
23659;BME280;12006;42.666;23.326;2023-07-29T02:26:08;-24383.22;;;17.65;100.00
23659;BME280;12006;42.666;23.326;2023-07-29T02:28:33;-24379.63;;;17.55;100.00
23659;BME280;12006;42.666;23.326;2023-07-29T02:31:28;-24377.75;;;17.50;100.00
23659;BME280;12006;42.666;23.326;2023-07-29T02:33:53;-24379.97;;;17.56;100.00
23659;BME280;12006;42.666;23.326;2023-07-29T02:36:19;-24380.66;;;17.58;100.00
23659;BME280;12006;42.666;23.326;2023-07-29T02:38:44;-24375.53;;;17.43;100.00
23659;BME280;12006;42.666;23.326;2023-07-29T02:41:10;-24376.91;;;17.47;100.00
23659;BME280;12006;42.666;23.326;2023-07-29T02:43:37;-24376.03;;;17.45;100.00
23659;BME280;12006;42.666;23.326;2023-07-29T02:46:03;-24377.94;;;17.50;100.00
23659;BME280;12006;42.666;23.326;2023-07-29T02:48:28;-24378.94;;;17.53;100.00
23659;BME280;12006;42.666;23.326;2023-07-29T02:50:54;-24379.63;;;17.55;100.00
23659;BME280;12006;42.666;23.326;2023-07-29T02:53:21;-24378.78;;;17.53;100.00
23659;BME280;12006;42.666;23.326;2023-07-29T02:55:47;-24375.34;;;17.43;100.00
23659;BME280;12006;42.666;23.326;2023-07-29T02:58:12;-24374.50;;;17.40;100.00
23659;BME280;12006;42.666;23.326;2023-07-29T03:00:37;-24372.13;;;17.33;100.00
23659;BME280;12006;42.666;23.326;2023-07-29T03:03:05;-24372.13;;;17.33;100.00
23659;BME280;12006;42.666;23.326;2023-07-29T03:05:30;-24370.41;;;17.28;100.00
23659;BME280;12006;42.666;23.326;2023-07-29T03:07:57;-24369.72;;;17.26;100.00
23659;BME280;12006;42.666;23.326;2023-07-29T03:10:23;-24371.09;;;17.30;100.00
23659;BME280;12006;42.666;23.326;2023-07-29T03:12:48;-24372.47;;;17.34;100.00
23659;BME280;12006;42.666;23.326;2023-07-29T03:15:14;-24369.88;;;17.27;100.00
23659;BME280;12006;42.666;23.326;2023-07-29T03:17:39;-24374.16;;;17.39;100.00
23659;BME280;12006;42.666;23.326;2023-07-29T03:20:05;-24372.97;;;17.36;100.00
23659;BME280;12006;42.666;23.326;2023-07-29T03:22:30;-24371.25;;;17.31;100.00
23659;BME280;12006;42.666;23.326;2023-07-29T03:24:56;-24368.69;;;17.23;100.00
23659;BME280;12006;42.666;23.326;2023-07-29T03:27:21;-24368.69;;;17.23;100.00
23659;BME280;12006;42.666;23.326;2023-07-29T03:29:47;-24374.50;;;17.40;100.00
23659;BME280;12006;42.666;23.326;2023-07-29T03:32:13;-24376.38;;;17.46;100.00
23659;BME280;12006;42.666;23.326;2023-07-29T03:34:38;-24379.28;;;17.54;100.00
23659;BME280;12006;42.666;23.326;2023-07-29T03:37:05;-24377.59;;;17.49;100.00
23659;BME280;12006;42.666;23.326;2023-07-29T03:39:31;-24374.84;;;17.41;100.00
23659;BME280;12006;42.666;23.326;2023-07-29T03:41:57;-24377.75;;;17.50;100.00
23659;BME280;12006;42.666;23.326;2023-07-29T03:44:22;-24378.59;;;17.52;100.00
23659;BME280;12006;42.666;23.326;2023-07-29T03:46:47;-24368.00;;;17.21;100.00
23659;BME280;12006;42.666;23.326;2023-07-29T03:49:13;-24375.19;;;17.42;100.00
23659;BME280;12006;42.666;23.326;2023-07-29T03:51:38;-24376.91;;;17.47;100.00
23659;BME280;12006;42.666;23.326;2023-07-29T03:54:04;-24376.38;;;17.46;100.00
23659;BME280;12006;42.666;23.326;2023-07-29T03:56:29;-24376.38;;;17.46;100.00
23659;BME280;12006;42.666;23.326;2023-07-29T03:59:04;-24377.06;;;17.48;100.00
23659;BME280;12006;42.666;23.326;2023-07-29T04:01:30;-24379.97;;;17.56;100.00
23659;BME280;12006;42.666;23.326;2023-07-29T04:03:57;-24379.81;;;17.56;100.00
23659;BME280;12006;42.666;23.326;2023-07-29T04:06:23;-24382.03;;;17.62;100.00
23659;BME280;12006;42.666;23.326;2023-07-29T04:08:48;-24384.41;;;17.69;100.00
23659;BME280;12006;42.666;23.326;2023-07-29T04:11:14;-24383.41;;;17.66;100.00
23659;BME280;12006;42.666;23.326;2023-07-29T04:13:40;-24386.81;;;17.76;100.00
23659;BME280;12006;42.666;23.326;2023-07-29T04:16:05;-24389.88;;;17.85;100.00
23659;BME280;12006;42.666;23.326;2023-07-29T04:18:30;-24392.63;;;17.93;100.00
23659;BME280;12006;42.666;23.326;2023-07-29T04:20:56;-24394.50;;;17.98;100.00
23659;BME280;12006;42.666;23.326;2023-07-29T04:23:21;-24400.31;;;18.15;100.00
23659;BME280;12006;42.666;23.326;2023-07-29T04:25:47;-24404.94;;;18.28;100.00
23659;BME280;12006;42.666;23.326;2023-07-29T04:28:12;-24402.88;;;18.23;100.00
23659;BME280;12006;42.666;23.326;2023-07-29T04:30:38;-24408.69;;;18.39;100.00
23659;BME280;12006;42.666;23.326;2023-07-29T04:33:03;-24412.78;;;18.51;100.00
23659;BME280;12006;42.666;23.326;2023-07-29T04:35:28;-24416.53;;;18.62;100.00
23659;BME280;12006;42.666;23.326;2023-07-29T04:37:54;-24416.03;;;18.61;100.00
23659;BME280;12006;42.666;23.326;2023-07-29T04:40:19;-24421.16;;;18.76;100.00
23659;BME280;12006;42.666;23.326;2023-07-29T04:42:45;-24421.31;;;18.82;100.00
23659;BME280;12006;42.666;23.326;2023-07-29T04:45:10;-24425.25;;;18.93;100.00
23659;BME280;12006;42.666;23.326;2023-07-29T04:47:35;-24429.00;;;19.04;100.00
23659;BME280;12006;42.666;23.326;2023-07-29T04:50:01;-24432.75;;;19.15;100.00
23659;BME280;12006;42.666;23.326;2023-07-29T04:52:26;-24434.97;;;19.21;100.00
23659;BME280;12006;42.666;23.326;2023-07-29T04:54:52;-23789.81;;;19.24;100.00
23659;BME280;12006;42.666;23.326;2023-07-29T04:57:17;-24113.50;;;19.26;100.00
23659;BME280;12006;42.666;23.326;2023-07-29T04:59:42;-24117.88;;;19.39;100.00
23659;BME280;12006;42.666;23.326;2023-07-29T05:02:08;-24121.25;;;19.48;100.00
23659;BME280;12006;42.666;23.326;2023-07-29T05:04:33;-23802.06;;;19.60;100.00
23659;BME280;12006;42.666;23.326;2023-07-29T05:06:58;-23804.69;;;19.68;100.00
23659;BME280;12006;42.666;23.326;2023-07-29T05:09:24;-23804.69;;;19.68;100.00
23659;BME280;12006;42.666;23.326;2023-07-29T05:11:49;-23809.81;;;19.84;100.00
23659;BME280;12006;42.666;23.326;2023-07-29T05:14:16;-23805.03;;;19.69;100.00
23659;BME280;12006;42.666;23.326;2023-07-29T05:16:42;-23806.03;;;19.72;100.00
23659;BME280;12006;42.666;23.326;2023-07-29T05:19:07;-23809.34;;;19.82;100.00
23659;BME280;12006;42.666;23.326;2023-07-29T05:21:33;-23491.19;;;19.98;100.00
23659;BME280;12006;42.666;23.326;2023-07-29T05:23:58;-23491.84;;;20.00;100.00
23659;BME280;12006;42.666;23.326;2023-07-29T05:26:24;-23494.44;;;20.08;100.00
23659;BME280;12006;42.666;23.326;2023-07-29T05:28:49;-23174.44;;;20.19;100.00
23659;BME280;12006;42.666;23.326;2023-07-29T05:31:15;-23502.09;;;20.31;100.00
23659;BME280;12006;42.666;23.326;2023-07-29T05:33:40;-23500.97;;;20.28;100.00
23659;BME280;12006;42.666;23.326;2023-07-29T05:36:06;-23502.59;;;20.33;100.00
23659;BME280;12006;42.666;23.326;2023-07-29T05:38:31;-23507.16;;;20.47;100.00
23659;BME280;12006;42.666;23.326;2023-07-29T05:40:57;-23832.16;;;20.51;100.00
23659;BME280;12006;42.666;23.326;2023-07-29T05:43:24;-23836.47;;;20.64;100.00
23659;BME280;12006;42.666;23.326;2023-07-29T05:45:49;-23840.94;;;20.77;100.00
23659;BME280;12006;42.666;23.326;2023-07-29T05:48:16;-23515.28;;;20.71;100.00
23659;BME280;12006;42.666;23.326;2023-07-29T05:50:41;-23517.06;;;20.77;100.00
23659;BME280;12006;42.666;23.326;2023-07-29T05:53:07;-23521.16;;;20.89;100.00
23659;BME280;12006;42.666;23.326;2023-07-29T05:55:32;-23523.75;;;20.97;100.00
23659;BME280;12006;42.666;23.326;2023-07-29T05:57:57;-23528.94;;;21.13;100.00
23659;BME280;12006;42.666;23.326;2023-07-29T06:00:23;-23531.06;;;21.20;100.00
23659;BME280;12006;42.666;23.326;2023-07-29T06:02:48;-23536.59;;;21.36;100.00
23659;BME280;12006;42.666;23.326;2023-07-29T06:05:14;-23539.03;;;21.44;100.00
23659;BME280;12006;42.666;23.326;2023-07-29T06:07:39;-23543.91;;;21.59;100.00
23659;BME280;12006;42.666;23.326;2023-07-29T06:10:09;-23545.22;;;21.63;100.00
23659;BME280;12006;42.666;23.326;2023-07-29T06:12:37;-23546.19;;;21.66;100.00
23659;BME280;12006;42.666;23.326;2023-07-29T06:15:03;-23548.97;;;21.74;100.00
23659;BME280;12006;42.666;23.326;2023-07-29T06:17:28;-23228.72;;;21.87;100.00
23659;BME280;12006;42.666;23.326;2023-07-29T06:19:53;-23555.63;;;21.94;100.00
23659;BME280;12006;42.666;23.326;2023-07-29T06:22:19;-23234.00;;;22.03;100.00
23659;BME280;12006;42.666;23.326;2023-07-29T06:24:45;-23235.91;;;22.09;100.00
23659;BME280;12006;42.666;23.326;2023-07-29T06:27:10;-23563.44;;;22.18;100.00
23659;BME280;12006;42.666;23.326;2023-07-29T06:29:36;-23567.19;;;22.30;100.00
23659;BME280;12006;42.666;23.326;2023-07-29T06:32:01;-23567.66;;;22.31;100.00
23659;BME280;12006;42.666;23.326;2023-07-29T06:34:26;-23569.78;;;22.38;100.00
23659;BME280;12006;42.666;23.326;2023-07-29T06:36:52;-23571.25;;;22.42;100.00
23659;BME280;12006;42.666;23.326;2023-07-29T06:39:17;-23571.56;;;22.43;100.00
23659;BME280;12006;42.666;23.326;2023-07-29T06:41:42;-23569.94;;;22.38;100.00
23659;BME280;12006;42.666;23.326;2023-07-29T06:44:08;-23572.53;;;22.46;100.00
23659;BME280;12006;42.666;23.326;2023-07-29T06:46:33;-23578.38;;;22.64;100.00
23659;BME280;12006;42.666;23.326;2023-07-29T06:48:59;-23585.53;;;22.86;100.00
23659;BME280;12006;42.666;23.326;2023-07-29T06:51:24;-23914.13;;;22.97;100.00
23659;BME280;12006;42.666;23.326;2023-07-29T06:53:49;-23591.72;;;23.05;100.00
23659;BME280;12006;42.666;23.326;2023-07-29T06:56:15;-23587.81;;;22.93;100.00
23659;BME280;12006;42.666;23.326;2023-07-29T06:58:40;-23919.75;;;23.14;100.00
23659;BME280;12006;42.666;23.326;2023-07-29T07:01:06;-23596.44;;;23.19;99.08
23659;BME280;12006;42.666;23.326;2023-07-29T07:03:31;-23597.25;;;23.21;100.00
23659;BME280;12006;42.666;23.326;2023-07-29T07:05:56;-23926.50;;;23.34;100.00
23659;BME280;12006;42.666;23.326;2023-07-29T07:08:22;-23928.31;;;23.39;99.36
23659;BME280;12006;42.666;23.326;2023-07-29T07:10:48;-23931.78;;;23.50;100.00
23659;BME280;12006;42.666;23.326;2023-07-29T07:13:13;-23933.59;;;23.55;100.00
23659;BME280;12006;42.666;23.326;2023-07-29T07:15:38;-23936.25;;;23.63;100.00
23659;BME280;12006;42.666;23.326;2023-07-29T07:18:04;-24265.94;;;23.76;100.00
23659;BME280;12006;42.666;23.326;2023-07-29T07:20:29;-24269.63;;;23.87;98.56
23659;BME280;12006;42.666;23.326;2023-07-29T07:22:55;-24267.09;;;23.80;100.00
23659;BME280;12006;42.666;23.326;2023-07-29T07:25:20;-24271.81;;;23.93;99.68
23659;BME280;12006;42.666;23.326;2023-07-29T07:27:46;-24278.00;;;24.12;95.93
23659;BME280;12006;42.666;23.326;2023-07-29T07:30:11;-24282.19;;;24.24;92.05
23659;BME280;12006;42.666;23.326;2023-07-29T07:32:37;-24282.84;;;24.26;95.00
23659;BME280;12006;42.666;23.326;2023-07-29T07:35:03;-24283.84;;;24.29;93.46
23659;BME280;12006;42.666;23.326;2023-07-29T07:37:29;-24286.03;;;24.36;89.31
23659;BME280;12006;42.666;23.326;2023-07-29T07:39:54;-23957.84;;;24.28;89.96
23659;BME280;12006;42.666;23.326;2023-07-29T07:42:20;-24282.69;;;24.26;91.04
23659;BME280;12006;42.666;23.326;2023-07-29T07:44:45;-23961.81;;;24.40;86.59
23659;BME280;12006;42.666;23.326;2023-07-29T07:47:10;-23960.97;;;24.38;86.88
23659;BME280;12006;42.666;23.326;2023-07-29T07:49:36;-24288.38;;;24.43;87.77
23659;BME280;12006;42.666;23.326;2023-07-29T07:52:01;-24292.75;;;24.55;86.45
23659;BME280;12006;42.666;23.326;2023-07-29T07:54:26;-24292.56;;;24.55;86.92
23659;BME280;12006;42.666;23.326;2023-07-29T07:56:52;-24299.09;;;24.74;85.84
23659;BME280;12006;42.666;23.326;2023-07-29T07:59:17;-24624.16;;;24.72;93.97
23659;BME280;12006;42.666;23.326;2023-07-29T08:01:42;-24624.16;;;24.72;95.20
23659;BME280;12006;42.666;23.326;2023-07-29T08:04:08;-24298.94;;;24.74;92.60
23659;BME280;12006;42.666;23.326;2023-07-29T08:06:33;-24299.94;;;24.77;91.55
23659;BME280;12006;42.666;23.326;2023-07-29T08:08:59;-24634.19;;;25.01;95.07
23659;BME280;12006;42.666;23.326;2023-07-29T08:11:25;-24634.50;;;25.02;91.38
23659;BME280;12006;42.666;23.326;2023-07-29T08:13:51;-24637.91;;;25.12;87.22
23659;BME280;12006;42.666;23.326;2023-07-29T08:16:16;-24642.84;;;25.26;85.04
23659;BME280;12006;42.666;23.326;2023-07-29T08:18:41;-24647.44;;;25.40;86.09
23659;BME280;12006;42.666;23.326;2023-07-29T08:21:07;-24651.19;;;25.51;83.71
23659;BME280;12006;42.666;23.326;2023-07-29T08:23:33;-24654.56;;;25.61;85.19
23659;BME280;12006;42.666;23.326;2023-07-29T08:26:00;-24656.28;;;25.66;81.77
23659;BME280;12006;42.666;23.326;2023-07-29T08:28:32;-24661.03;;;25.79;77.18
23659;BME280;12006;42.666;23.326;2023-07-29T08:30:58;-24667.16;;;25.97;76.30
23659;BME280;12006;42.666;23.326;2023-07-29T08:33:24;-24663.41;;;25.86;79.38
23659;BME280;12006;42.666;23.326;2023-07-29T08:35:49;-24668.84;;;26.02;75.29
23659;BME280;12006;42.666;23.326;2023-07-29T08:38:15;-24674.63;;;26.19;74.71
23659;BME280;12006;42.666;23.326;2023-07-29T08:41:11;-24680.41;;;26.36;69.77
23659;BME280;12006;42.666;23.326;2023-07-29T08:43:39;-24683.81;;;26.46;69.44
23659;BME280;12006;42.666;23.326;2023-07-29T08:46:07;-24682.28;;;26.41;70.92
23659;BME280;12006;42.666;23.326;2023-07-29T08:48:40;-24691.09;;;26.67;69.47
23659;BME280;12006;42.666;23.326;2023-07-29T08:51:07;-24690.25;;;26.65;66.19
23659;BME280;12006;42.666;23.326;2023-07-29T08:53:33;-24696.03;;;26.82;65.50
23659;BME280;12006;42.666;23.326;2023-07-29T08:55:59;-24704.06;;;26.99;66.71
23659;BME280;12006;42.666;23.326;2023-07-29T08:58:25;-24706.44;;;27.06;64.96
23659;BME280;12006;42.666;23.326;2023-07-29T09:00:50;-24710.50;;;27.18;62.57
23659;BME280;12006;42.666;23.326;2023-07-29T09:03:16;-24716.97;;;27.37;64.02
23659;BME280;12006;42.666;23.326;2023-07-29T09:05:41;-24720.00;;;27.46;63.07
23659;BME280;12006;42.666;23.326;2023-07-29T09:08:07;-24726.13;;;27.64;59.91
23659;BME280;12006;42.666;23.326;2023-07-29T09:10:36;-24728.34;;;27.70;60.25
23659;BME280;12006;42.666;23.326;2023-07-29T09:13:05;-24731.56;;;27.80;61.64
23659;BME280;12006;42.666;23.326;2023-07-29T09:15:33;-24733.09;;;27.84;59.40
23659;BME280;12006;42.666;23.326;2023-07-29T09:17:59;-24734.94;;;27.90;59.88
23659;BME280;12006;42.666;23.326;2023-07-29T09:20:33;-24737.16;;;27.96;55.63
23659;BME280;12006;42.666;23.326;2023-07-29T09:22:59;-24742.75;;;28.13;55.48
23659;BME280;12006;42.666;23.326;2023-07-29T09:25:29;-24745.97;;;28.22;53.34
23659;BME280;12006;42.666;23.326;2023-07-29T09:28:01;-24749.88;;;28.33;54.94
23659;BME280;12006;42.666;23.326;2023-07-29T09:30:27;-24760.38;;;28.64;54.73
23659;BME280;12006;42.666;23.326;2023-07-29T09:32:56;-24764.28;;;28.76;53.33
23659;BME280;12006;42.666;23.326;2023-07-29T09:35:23;-24763.09;;;28.72;51.44
23659;BME280;12006;42.666;23.326;2023-07-29T09:37:49;-24762.25;;;28.70;51.94
23659;BME280;12006;42.666;23.326;2023-07-29T09:40:17;-24756.66;;;28.53;50.90
23659;BME280;12006;42.666;23.326;2023-07-29T09:43:01;-24757.00;;;28.54;51.52
23659;BME280;12006;42.666;23.326;2023-07-29T09:45:27;-24757.34;;;28.55;51.39
23659;BME280;12006;42.666;23.326;2023-07-29T09:47:53;-24759.72;;;28.62;54.33
23659;BME280;12006;42.666;23.326;2023-07-29T09:50:23;-24770.38;;;28.93;53.37
23659;BME280;12006;42.666;23.326;2023-07-29T09:52:50;-24780.72;;;29.24;55.28
23659;BME280;12006;42.666;23.326;2023-07-29T09:55:21;-24788.69;;;29.47;50.33
23659;BME280;12006;42.666;23.326;2023-07-29T09:57:46;-24789.19;;;29.48;48.41
23659;BME280;12006;42.666;23.326;2023-07-29T10:00:12;-24790.91;;;29.53;48.27
23659;BME280;12006;42.666;23.326;2023-07-29T10:02:42;-24795.63;;;29.67;50.96
23659;BME280;12006;42.666;23.326;2023-07-29T10:05:09;-24803.25;;;29.90;52.60
23659;BME280;12006;42.666;23.326;2023-07-29T10:07:38;-24809.34;;;30.07;49.29
23659;BME280;12006;42.666;23.326;2023-07-29T10:10:05;-24808.84;;;30.06;47.80
23659;BME280;12006;42.666;23.326;2023-07-29T10:12:32;-24806.47;;;29.99;47.93
23659;BME280;12006;42.666;23.326;2023-07-29T10:15:03;-24811.72;;;30.14;49.93
23659;BME280;12006;42.666;23.326;2023-07-29T10:17:30;-24810.38;;;30.10;46.01
23659;BME280;12006;42.666;23.326;2023-07-29T10:19:56;-24811.22;;;30.13;46.16
23659;BME280;12006;42.666;23.326;2023-07-29T10:22:27;-24812.25;;;30.16;47.60
23659;BME280;12006;42.666;23.326;2023-07-29T10:24:54;-24814.78;;;30.23;49.61
23659;BME280;12006;42.666;23.326;2023-07-29T10:27:23;-24818.50;;;30.34;48.70
23659;BME280;12006;42.666;23.326;2023-07-29T10:29:50;-24824.25;;;30.51;47.31
23659;BME280;12006;42.666;23.326;2023-07-29T10:32:17;-24829.84;;;30.67;48.47
23659;BME280;12006;42.666;23.326;2023-07-29T10:34:46;-24835.25;;;30.83;47.78
23659;BME280;12006;42.666;23.326;2023-07-29T10:37:11;-24842.03;;;31.03;46.54
23659;BME280;12006;42.666;23.326;2023-07-29T10:39:38;-24845.59;;;31.14;46.84
23659;BME280;12006;42.666;23.326;2023-07-29T10:42:06;-24847.94;;;31.21;47.88
23659;BME280;12006;42.666;23.326;2023-07-29T10:47:21;-24853.34;;;31.36;45.94
23659;BME280;12006;42.666;23.326;2023-07-29T10:49:58;-24858.28;;;31.51;45.61
23659;BME280;12006;42.666;23.326;2023-07-29T10:55:00;-24865.03;;;31.71;44.88
23659;BME280;12006;42.666;23.326;2023-07-29T10:57:32;-24867.06;;;31.77;43.76
23659;BME280;12006;42.666;23.326;2023-07-29T10:59:58;-24870.63;;;31.87;44.67
23659;BME280;12006;42.666;23.326;2023-07-29T11:02:35;-24874.84;;;31.99;43.32
23659;BME280;12006;42.666;23.326;2023-07-29T11:05:05;-24881.59;;;32.19;44.04
23659;BME280;12006;42.666;23.326;2023-07-29T11:07:43;-24884.97;;;32.29;41.21
23659;BME280;12006;42.666;23.326;2023-07-29T11:10:08;-24876.69;;;32.05;40.82
23659;BME280;12006;42.666;23.326;2023-07-29T11:17:50;-24880.75;;;32.17;45.30
23659;BME280;12006;42.666;23.326;2023-07-29T11:20:18;-24886.16;;;32.33;46.56
23659;BME280;12006;42.666;23.326;2023-07-29T11:22:44;-24892.25;;;32.51;44.30
23659;BME280;12006;42.666;23.326;2023-07-29T11:25:12;-24897.50;;;32.66;41.89
23659;BME280;12006;42.666;23.326;2023-07-29T11:27:37;-24900.38;;;32.74;43.49
23659;BME280;12006;42.666;23.326;2023-07-29T11:30:05;-24909.66;;;33.02;40.19
23659;BME280;12006;42.666;23.326;2023-07-29T11:32:30;-24911.50;;;33.07;42.69
23659;BME280;12006;42.666;23.326;2023-07-29T11:34:56;-24912.69;;;33.11;41.19
23659;BME280;12006;42.666;23.326;2023-07-29T11:37:22;-24920.47;;;33.33;43.72
23659;BME280;12006;42.666;23.326;2023-07-29T11:39:47;-24912.00;;;33.09;40.47
23659;BME280;12006;42.666;23.326;2023-07-29T11:42:13;-24914.22;;;33.15;38.82
23659;BME280;12006;42.666;23.326;2023-07-29T11:44:39;-24907.63;;;32.96;40.70
23659;BME280;12006;42.666;23.326;2023-07-29T11:47:08;-24894.63;;;32.58;39.28
23659;BME280;12006;42.666;23.326;2023-07-29T11:49:34;-24890.72;;;32.46;40.62
23659;BME280;12006;42.666;23.326;2023-07-29T11:52:01;-24890.22;;;32.45;42.87
23659;BME280;12006;42.666;23.326;2023-07-29T11:54:27;-24894.78;;;32.58;41.77
23659;BME280;12006;42.666;23.326;2023-07-29T11:56:53;-24895.47;;;32.60;40.51
23659;BME280;12006;42.666;23.326;2023-07-29T11:59:19;-24893.94;;;32.56;40.10
23659;BME280;12006;42.666;23.326;2023-07-29T12:01:45;-24898.84;;;32.70;39.10
23659;BME280;12006;42.666;23.326;2023-07-29T12:04:11;-24901.72;;;32.78;39.21
23659;BME280;12006;42.666;23.326;2023-07-29T12:06:37;-24898.16;;;32.68;41.96
23659;BME280;12006;42.666;23.326;2023-07-29T12:09:03;-24903.06;;;32.82;38.69
23659;BME280;12006;42.666;23.326;2023-07-29T12:11:29;-24905.94;;;32.91;38.26
23659;BME280;12006;42.666;23.326;2023-07-29T12:13:55;-24909.50;;;33.01;40.10
23659;BME280;12006;42.666;23.326;2023-07-29T12:16:20;-24912.34;;;33.10;40.25
23659;BME280;12006;42.666;23.326;2023-07-29T12:18:46;-24921.47;;;33.36;41.43
23659;BME280;12006;42.666;23.326;2023-07-29T12:21:14;-24911.69;;;33.08;39.89
23659;BME280;12006;42.666;23.326;2023-07-29T12:23:39;-24920.13;;;33.32;41.43
23659;BME280;12006;42.666;23.326;2023-07-29T12:26:05;-24925.00;;;33.47;39.70
23659;BME280;12006;42.666;23.326;2023-07-29T12:28:30;-24929.91;;;33.61;39.97
23659;BME280;12006;42.666;23.326;2023-07-29T12:30:56;-24933.13;;;33.71;40.77
23659;BME280;12006;42.666;23.326;2023-07-29T12:33:36;-24939.88;;;33.90;41.46
23659;BME280;12006;42.666;23.326;2023-07-29T12:36:02;-24945.94;;;34.08;39.54
23659;BME280;12006;42.666;23.326;2023-07-29T12:38:29;-24945.44;;;34.07;39.27
23659;BME280;12006;42.666;23.326;2023-07-29T12:40:55;-24942.75;;;33.99;38.40
23659;BME280;12006;42.666;23.326;2023-07-29T12:43:21;-24945.94;;;34.08;39.04
23659;BME280;12006;42.666;23.326;2023-07-29T12:45:46;-24947.31;;;34.12;38.16
23659;BME280;12006;42.666;23.326;2023-07-29T12:48:14;-24956.22;;;34.39;41.18
23659;BME280;12006;42.666;23.326;2023-07-29T12:50:40;-24959.94;;;34.49;39.84